sensor_id;sensor_type;location;lat;lon;timestamp;P1;durP1;ratioP1;P2;durP2;ratioP2
39322;SDS011;25036;53.638;10.134;2022-07-18T00:00:31;1.48;;;1.38;;
39322;SDS011;25036;53.638;10.134;2022-07-18T00:01:31;1.77;;;1.30;;
39322;SDS011;25036;53.638;10.134;2022-07-18T00:02:32;2.45;;;1.70;;
39322;SDS011;25036;53.638;10.134;2022-07-18T00:03:32;1.50;;;1.40;;
39322;SDS011;25036;53.638;10.134;2022-07-18T00:04:33;2.50;;;1.30;;
39322;SDS011;25036;53.638;10.134;2022-07-18T00:05:33;3.22;;;1.63;;
39322;SDS011;25036;53.638;10.134;2022-07-18T00:06:33;1.73;;;1.40;;
39322;SDS011;25036;53.638;10.134;2022-07-18T00:07:33;2.00;;;1.50;;
39322;SDS011;25036;53.638;10.134;2022-07-18T00:08:34;1.95;;;1.15;;
39322;SDS011;25036;53.638;10.134;2022-07-18T00:09:34;2.05;;;1.48;;
39322;SDS011;25036;53.638;10.134;2022-07-18T00:10:34;1.30;;;1.20;;
39322;SDS011;25036;53.638;10.134;2022-07-18T00:11:34;1.60;;;1.40;;
39322;SDS011;25036;53.638;10.134;2022-07-18T00:12:34;1.67;;;1.43;;
39322;SDS011;25036;53.638;10.134;2022-07-18T00:13:34;1.67;;;1.30;;
39322;SDS011;25036;53.638;10.134;2022-07-18T00:14:35;1.30;;;1.20;;
39322;SDS011;25036;53.638;10.134;2022-07-18T00:15:36;2.03;;;1.30;;
39322;SDS011;25036;53.638;10.134;2022-07-18T00:16:36;5.32;;;1.52;;
39322;SDS011;25036;53.638;10.134;2022-07-18T00:17:36;3.47;;;1.40;;
39322;SDS011;25036;53.638;10.134;2022-07-18T00:18:37;1.90;;;1.40;;
39322;SDS011;25036;53.638;10.134;2022-07-18T00:19:37;1.50;;;1.40;;
39322;SDS011;25036;53.638;10.134;2022-07-18T00:20:37;1.65;;;1.52;;
39322;SDS011;25036;53.638;10.134;2022-07-18T00:21:37;1.77;;;1.38;;
39322;SDS011;25036;53.638;10.134;2022-07-18T00:22:38;4.67;;;1.50;;
39322;SDS011;25036;53.638;10.134;2022-07-18T00:23:38;1.70;;;1.38;;
39322;SDS011;25036;53.638;10.134;2022-07-18T00:24:38;1.90;;;1.50;;
39322;SDS011;25036;53.638;10.134;2022-07-18T00:25:38;2.25;;;1.70;;
39322;SDS011;25036;53.638;10.134;2022-07-18T00:26:38;1.87;;;1.50;;
39322;SDS011;25036;53.638;10.134;2022-07-18T00:27:38;2.33;;;1.60;;
39322;SDS011;25036;53.638;10.134;2022-07-18T00:28:39;2.65;;;1.70;;
39322;SDS011;25036;53.638;10.134;2022-07-18T00:29:39;1.83;;;1.42;;
39322;SDS011;25036;53.638;10.134;2022-07-18T00:30:39;2.03;;;1.42;;
39322;SDS011;25036;53.638;10.134;2022-07-18T00:31:40;2.08;;;1.42;;
39322;SDS011;25036;53.638;10.134;2022-07-18T00:32:40;1.87;;;1.40;;
39322;SDS011;25036;53.638;10.134;2022-07-18T00:33:40;2.38;;;1.40;;
39322;SDS011;25036;53.638;10.134;2022-07-18T00:34:41;2.63;;;1.58;;
39322;SDS011;25036;53.638;10.134;2022-07-18T00:35:41;2.45;;;1.30;;
39322;SDS011;25036;53.638;10.134;2022-07-18T00:36:41;2.40;;;1.60;;
39322;SDS011;25036;53.638;10.134;2022-07-18T00:37:41;2.43;;;1.40;;
39322;SDS011;25036;53.638;10.134;2022-07-18T00:38:41;3.13;;;1.42;;
39322;SDS011;25036;53.638;10.134;2022-07-18T00:39:41;2.63;;;1.48;;
39322;SDS011;25036;53.638;10.134;2022-07-18T00:40:42;1.40;;;1.27;;
39322;SDS011;25036;53.638;10.134;2022-07-18T00:41:45;2.10;;;1.48;;
39322;SDS011;25036;53.638;10.134;2022-07-18T00:42:46;2.63;;;1.58;;
39322;SDS011;25036;53.638;10.134;2022-07-18T00:43:46;2.45;;;1.50;;
39322;SDS011;25036;53.638;10.134;2022-07-18T00:44:47;1.50;;;1.35;;
39322;SDS011;25036;53.638;10.134;2022-07-18T00:45:51;1.33;;;1.23;;
39322;SDS011;25036;53.638;10.134;2022-07-18T00:46:53;1.50;;;1.20;;
39322;SDS011;25036;53.638;10.134;2022-07-18T00:47:53;1.30;;;1.20;;
39322;SDS011;25036;53.638;10.134;2022-07-18T00:48:54;1.55;;;1.38;;
39322;SDS011;25036;53.638;10.134;2022-07-18T00:49:54;4.13;;;1.70;;
39322;SDS011;25036;53.638;10.134;2022-07-18T00:50:54;2.58;;;1.48;;
39322;SDS011;25036;53.638;10.134;2022-07-18T00:51:55;2.17;;;1.33;;
39322;SDS011;25036;53.638;10.134;2022-07-18T00:52:55;2.40;;;1.20;;
39322;SDS011;25036;53.638;10.134;2022-07-18T00:53:55;1.57;;;1.47;;
39322;SDS011;25036;53.638;10.134;2022-07-18T00:54:55;3.23;;;1.50;;
39322;SDS011;25036;53.638;10.134;2022-07-18T00:55:55;2.53;;;1.50;;
39322;SDS011;25036;53.638;10.134;2022-07-18T00:56:55;1.80;;;1.35;;
39322;SDS011;25036;53.638;10.134;2022-07-18T00:57:56;2.45;;;1.70;;
39322;SDS011;25036;53.638;10.134;2022-07-18T00:58:56;1.92;;;1.55;;
39322;SDS011;25036;53.638;10.134;2022-07-18T00:59:57;1.70;;;1.60;;
39322;SDS011;25036;53.638;10.134;2022-07-18T01:01:15;2.20;;;1.52;;
39322;SDS011;25036;53.638;10.134;2022-07-18T01:02:34;1.88;;;1.25;;
39322;SDS011;25036;53.638;10.134;2022-07-18T01:03:34;1.87;;;1.67;;
39322;SDS011;25036;53.638;10.134;2022-07-18T01:04:34;2.28;;;1.38;;
39322;SDS011;25036;53.638;10.134;2022-07-18T01:05:35;2.25;;;1.40;;
39322;SDS011;25036;53.638;10.134;2022-07-18T01:06:35;2.03;;;1.63;;
39322;SDS011;25036;53.638;10.134;2022-07-18T01:07:35;1.98;;;1.77;;
39322;SDS011;25036;53.638;10.134;2022-07-18T01:08:36;1.40;;;1.30;;
39322;SDS011;25036;53.638;10.134;2022-07-18T01:09:37;1.83;;;1.40;;
39322;SDS011;25036;53.638;10.134;2022-07-18T01:10:38;3.28;;;1.80;;
39322;SDS011;25036;53.638;10.134;2022-07-18T01:11:38;3.17;;;1.70;;
39322;SDS011;25036;53.638;10.134;2022-07-18T01:12:38;5.50;;;1.50;;
39322;SDS011;25036;53.638;10.134;2022-07-18T01:13:38;2.37;;;1.50;;
39322;SDS011;25036;53.638;10.134;2022-07-18T01:14:39;1.88;;;1.60;;
39322;SDS011;25036;53.638;10.134;2022-07-18T01:15:39;1.60;;;1.42;;
39322;SDS011;25036;53.638;10.134;2022-07-18T01:16:39;2.07;;;1.40;;
39322;SDS011;25036;53.638;10.134;2022-07-18T01:17:39;2.20;;;1.40;;
39322;SDS011;25036;53.638;10.134;2022-07-18T01:18:43;4.00;;;1.63;;
39322;SDS011;25036;53.638;10.134;2022-07-18T01:19:43;2.55;;;1.55;;
39322;SDS011;25036;53.638;10.134;2022-07-18T01:20:44;2.20;;;1.70;;
39322;SDS011;25036;53.638;10.134;2022-07-18T01:21:44;2.55;;;1.52;;
39322;SDS011;25036;53.638;10.134;2022-07-18T01:22:44;2.57;;;1.40;;
39322;SDS011;25036;53.638;10.134;2022-07-18T01:23:44;1.77;;;1.50;;
39322;SDS011;25036;53.638;10.134;2022-07-18T01:24:44;1.53;;;1.40;;
39322;SDS011;25036;53.638;10.134;2022-07-18T01:25:45;2.17;;;1.65;;
39322;SDS011;25036;53.638;10.134;2022-07-18T01:26:45;3.35;;;1.73;;
39322;SDS011;25036;53.638;10.134;2022-07-18T01:27:45;3.23;;;1.20;;
39322;SDS011;25036;53.638;10.134;2022-07-18T01:28:45;1.67;;;1.40;;
39322;SDS011;25036;53.638;10.134;2022-07-18T01:29:46;1.80;;;1.70;;
39322;SDS011;25036;53.638;10.134;2022-07-18T01:30:47;1.95;;;1.48;;
39322;SDS011;25036;53.638;10.134;2022-07-18T01:31:47;2.17;;;1.63;;
39322;SDS011;25036;53.638;10.134;2022-07-18T01:32:48;1.90;;;1.47;;
39322;SDS011;25036;53.638;10.134;2022-07-18T01:33:54;1.95;;;1.42;;
39322;SDS011;25036;53.638;10.134;2022-07-18T01:34:54;1.80;;;1.70;;
39322;SDS011;25036;53.638;10.134;2022-07-18T01:35:55;2.90;;;1.40;;
39322;SDS011;25036;53.638;10.134;2022-07-18T01:36:55;1.80;;;1.30;;
39322;SDS011;25036;53.638;10.134;2022-07-18T01:37:56;2.80;;;2.00;;
39322;SDS011;25036;53.638;10.134;2022-07-18T01:38:56;2.72;;;1.63;;
39322;SDS011;25036;53.638;10.134;2022-07-18T01:39:56;1.67;;;1.40;;
39322;SDS011;25036;53.638;10.134;2022-07-18T01:40:56;2.40;;;1.90;;
39322;SDS011;25036;53.638;10.134;2022-07-18T01:42:01;1.65;;;1.55;;
39322;SDS011;25036;53.638;10.134;2022-07-18T01:43:01;1.92;;;1.38;;
39322;SDS011;25036;53.638;10.134;2022-07-18T01:44:01;2.10;;;1.90;;
39322;SDS011;25036;53.638;10.134;2022-07-18T01:45:03;2.65;;;1.60;;
39322;SDS011;25036;53.638;10.134;2022-07-18T01:46:03;1.65;;;1.55;;
39322;SDS011;25036;53.638;10.134;2022-07-18T01:47:04;2.03;;;1.60;;
39322;SDS011;25036;53.638;10.134;2022-07-18T01:48:05;3.13;;;2.10;;
39322;SDS011;25036;53.638;10.134;2022-07-18T01:49:05;3.47;;;2.10;;
39322;SDS011;25036;53.638;10.134;2022-07-18T01:50:05;1.83;;;1.70;;
39322;SDS011;25036;53.638;10.134;2022-07-18T01:51:06;2.30;;;1.60;;
39322;SDS011;25036;53.638;10.134;2022-07-18T01:52:09;1.90;;;1.67;;
39322;SDS011;25036;53.638;10.134;2022-07-18T01:53:10;1.98;;;1.63;;
39322;SDS011;25036;53.638;10.134;2022-07-18T01:54:10;1.73;;;1.60;;
39322;SDS011;25036;53.638;10.134;2022-07-18T01:55:10;1.95;;;1.50;;
39322;SDS011;25036;53.638;10.134;2022-07-18T01:56:11;1.70;;;1.60;;
39322;SDS011;25036;53.638;10.134;2022-07-18T01:57:12;1.80;;;1.60;;
39322;SDS011;25036;53.638;10.134;2022-07-18T01:58:12;2.00;;;1.60;;
39322;SDS011;25036;53.638;10.134;2022-07-18T01:59:12;1.83;;;1.43;;
39322;SDS011;25036;53.638;10.134;2022-07-18T02:00:13;2.90;;;1.65;;
39322;SDS011;25036;53.638;10.134;2022-07-18T02:01:13;2.13;;;1.70;;
39322;SDS011;25036;53.638;10.134;2022-07-18T02:02:13;2.08;;;1.73;;
39322;SDS011;25036;53.638;10.134;2022-07-18T02:03:14;4.23;;;1.60;;
39322;SDS011;25036;53.638;10.134;2022-07-18T02:04:14;2.20;;;1.77;;
39322;SDS011;25036;53.638;10.134;2022-07-18T02:05:14;1.20;;;1.10;;
39322;SDS011;25036;53.638;10.134;2022-07-18T02:06:14;2.10;;;1.58;;
39322;SDS011;25036;53.638;10.134;2022-07-18T02:07:14;3.27;;;1.70;;
39322;SDS011;25036;53.638;10.134;2022-07-18T02:08:15;2.33;;;1.77;;
39322;SDS011;25036;53.638;10.134;2022-07-18T02:09:15;1.90;;;1.70;;
39322;SDS011;25036;53.638;10.134;2022-07-18T02:10:16;2.37;;;1.67;;
39322;SDS011;25036;53.638;10.134;2022-07-18T02:11:17;2.42;;;2.10;;
39322;SDS011;25036;53.638;10.134;2022-07-18T02:12:17;1.97;;;1.80;;
39322;SDS011;25036;53.638;10.134;2022-07-18T02:13:17;1.75;;;1.65;;
39322;SDS011;25036;53.638;10.134;2022-07-18T02:14:20;2.00;;;1.75;;
39322;SDS011;25036;53.638;10.134;2022-07-18T02:15:20;3.00;;;1.80;;
39322;SDS011;25036;53.638;10.134;2022-07-18T02:16:20;2.13;;;1.65;;
39322;SDS011;25036;53.638;10.134;2022-07-18T02:17:20;2.53;;;1.85;;
39322;SDS011;25036;53.638;10.134;2022-07-18T02:18:21;2.00;;;1.80;;
39322;SDS011;25036;53.638;10.134;2022-07-18T02:19:21;2.60;;;1.70;;
39322;SDS011;25036;53.638;10.134;2022-07-18T02:20:21;1.83;;;1.50;;
39322;SDS011;25036;53.638;10.134;2022-07-18T02:21:21;2.17;;;1.85;;
39322;SDS011;25036;53.638;10.134;2022-07-18T02:22:21;2.22;;;1.63;;
39322;SDS011;25036;53.638;10.134;2022-07-18T02:23:22;1.85;;;1.67;;
39322;SDS011;25036;53.638;10.134;2022-07-18T02:24:23;2.30;;;1.57;;
39322;SDS011;25036;53.638;10.134;2022-07-18T02:25:23;2.90;;;1.60;;
39322;SDS011;25036;53.638;10.134;2022-07-18T02:26:23;2.50;;;1.73;;
39322;SDS011;25036;53.638;10.134;2022-07-18T02:27:23;1.60;;;1.50;;
39322;SDS011;25036;53.638;10.134;2022-07-18T02:28:23;2.35;;;1.70;;
39322;SDS011;25036;53.638;10.134;2022-07-18T02:29:24;2.30;;;1.90;;
39322;SDS011;25036;53.638;10.134;2022-07-18T02:30:24;3.03;;;1.70;;
39322;SDS011;25036;53.638;10.134;2022-07-18T02:31:24;2.00;;;1.70;;
39322;SDS011;25036;53.638;10.134;2022-07-18T02:32:24;2.83;;;1.90;;
39322;SDS011;25036;53.638;10.134;2022-07-18T02:33:25;1.98;;;1.80;;
39322;SDS011;25036;53.638;10.134;2022-07-18T02:34:25;1.90;;;1.70;;
39322;SDS011;25036;53.638;10.134;2022-07-18T02:35:25;2.33;;;1.67;;
39322;SDS011;25036;53.638;10.134;2022-07-18T02:36:25;4.43;;;1.65;;
39322;SDS011;25036;53.638;10.134;2022-07-18T02:37:25;3.65;;;1.70;;
39322;SDS011;25036;53.638;10.134;2022-07-18T02:38:26;2.77;;;1.67;;
39322;SDS011;25036;53.638;10.134;2022-07-18T02:39:26;1.92;;;1.77;;
39322;SDS011;25036;53.638;10.134;2022-07-18T02:40:26;1.88;;;1.65;;
39322;SDS011;25036;53.638;10.134;2022-07-18T02:41:26;1.90;;;1.70;;
39322;SDS011;25036;53.638;10.134;2022-07-18T02:42:26;2.73;;;2.07;;
39322;SDS011;25036;53.638;10.134;2022-07-18T02:43:27;2.97;;;1.80;;
39322;SDS011;25036;53.638;10.134;2022-07-18T02:44:27;2.30;;;1.90;;
39322;SDS011;25036;53.638;10.134;2022-07-18T02:45:27;2.47;;;1.80;;
39322;SDS011;25036;53.638;10.134;2022-07-18T02:46:27;4.97;;;2.40;;
39322;SDS011;25036;53.638;10.134;2022-07-18T02:47:28;1.73;;;1.53;;
39322;SDS011;25036;53.638;10.134;2022-07-18T02:48:28;2.80;;;1.90;;
39322;SDS011;25036;53.638;10.134;2022-07-18T02:49:28;2.10;;;1.90;;
39322;SDS011;25036;53.638;10.134;2022-07-18T02:50:28;3.92;;;2.00;;
39322;SDS011;25036;53.638;10.134;2022-07-18T02:51:29;2.40;;;1.77;;
39322;SDS011;25036;53.638;10.134;2022-07-18T02:52:29;2.03;;;1.70;;
39322;SDS011;25036;53.638;10.134;2022-07-18T02:53:29;1.77;;;1.55;;
39322;SDS011;25036;53.638;10.134;2022-07-18T02:54:30;2.37;;;1.57;;
39322;SDS011;25036;53.638;10.134;2022-07-18T02:55:30;2.03;;;1.70;;
39322;SDS011;25036;53.638;10.134;2022-07-18T02:56:30;1.90;;;1.77;;
39322;SDS011;25036;53.638;10.134;2022-07-18T02:57:31;2.25;;;1.75;;
39322;SDS011;25036;53.638;10.134;2022-07-18T02:58:31;2.30;;;2.08;;
39322;SDS011;25036;53.638;10.134;2022-07-18T02:59:32;2.45;;;1.88;;
39322;SDS011;25036;53.638;10.134;2022-07-18T03:00:32;2.53;;;1.70;;
39322;SDS011;25036;53.638;10.134;2022-07-18T03:01:32;2.10;;;1.73;;
39322;SDS011;25036;53.638;10.134;2022-07-18T03:02:32;2.70;;;1.90;;
39322;SDS011;25036;53.638;10.134;2022-07-18T03:03:33;2.92;;;1.95;;
39322;SDS011;25036;53.638;10.134;2022-07-18T03:04:33;2.10;;;1.90;;
39322;SDS011;25036;53.638;10.134;2022-07-18T03:05:33;3.22;;;2.08;;
39322;SDS011;25036;53.638;10.134;2022-07-18T03:06:33;2.00;;;1.80;;
39322;SDS011;25036;53.638;10.134;2022-07-18T03:07:33;2.00;;;1.80;;
39322;SDS011;25036;53.638;10.134;2022-07-18T03:08:33;1.70;;;1.60;;
39322;SDS011;25036;53.638;10.134;2022-07-18T03:09:34;3.07;;;1.87;;
39322;SDS011;25036;53.638;10.134;2022-07-18T03:10:34;1.60;;;1.50;;
39322;SDS011;25036;53.638;10.134;2022-07-18T03:11:34;3.27;;;2.00;;
39322;SDS011;25036;53.638;10.134;2022-07-18T03:12:34;1.97;;;1.73;;
39322;SDS011;25036;53.638;10.134;2022-07-18T03:13:34;2.88;;;2.15;;
39322;SDS011;25036;53.638;10.134;2022-07-18T03:14:34;2.13;;;1.90;;
39322;SDS011;25036;53.638;10.134;2022-07-18T03:15:35;2.63;;;1.80;;
39322;SDS011;25036;53.638;10.134;2022-07-18T03:16:35;2.80;;;2.08;;
39322;SDS011;25036;53.638;10.134;2022-07-18T03:17:35;2.15;;;1.88;;
39322;SDS011;25036;53.638;10.134;2022-07-18T03:18:35;2.20;;;1.87;;
39322;SDS011;25036;53.638;10.134;2022-07-18T03:19:35;2.67;;;1.80;;
39322;SDS011;25036;53.638;10.134;2022-07-18T03:20:35;3.22;;;2.08;;
39322;SDS011;25036;53.638;10.134;2022-07-18T03:21:36;1.77;;;1.67;;
39322;SDS011;25036;53.638;10.134;2022-07-18T03:22:36;2.20;;;1.77;;
39322;SDS011;25036;53.638;10.134;2022-07-18T03:23:36;2.85;;;2.00;;
39322;SDS011;25036;53.638;10.134;2022-07-18T03:24:36;3.45;;;1.98;;
39322;SDS011;25036;53.638;10.134;2022-07-18T03:25:37;2.10;;;1.80;;
39322;SDS011;25036;53.638;10.134;2022-07-18T03:26:37;2.33;;;2.00;;
39322;SDS011;25036;53.638;10.134;2022-07-18T03:27:37;2.53;;;1.80;;
39322;SDS011;25036;53.638;10.134;2022-07-18T03:28:37;3.13;;;1.90;;
39322;SDS011;25036;53.638;10.134;2022-07-18T03:29:38;2.40;;;2.10;;
39322;SDS011;25036;53.638;10.134;2022-07-18T03:30:38;2.90;;;1.80;;
39322;SDS011;25036;53.638;10.134;2022-07-18T03:31:38;2.23;;;2.03;;
39322;SDS011;25036;53.638;10.134;2022-07-18T03:32:39;2.40;;;2.10;;
39322;SDS011;25036;53.638;10.134;2022-07-18T03:33:39;2.72;;;2.05;;
39322;SDS011;25036;53.638;10.134;2022-07-18T03:34:39;2.80;;;1.90;;
39322;SDS011;25036;53.638;10.134;2022-07-18T03:35:39;3.10;;;2.20;;
39322;SDS011;25036;53.638;10.134;2022-07-18T03:36:40;4.75;;;2.70;;
39322;SDS011;25036;53.638;10.134;2022-07-18T03:37:40;3.17;;;2.35;;
39322;SDS011;25036;53.638;10.134;2022-07-18T03:38:40;2.53;;;1.93;;
39322;SDS011;25036;53.638;10.134;2022-07-18T03:39:43;2.42;;;2.22;;
39322;SDS011;25036;53.638;10.134;2022-07-18T03:40:43;4.93;;;2.30;;
39322;SDS011;25036;53.638;10.134;2022-07-18T03:41:43;3.23;;;2.50;;
39322;SDS011;25036;53.638;10.134;2022-07-18T03:42:43;3.30;;;2.23;;
39322;SDS011;25036;53.638;10.134;2022-07-18T03:43:43;4.07;;;2.03;;
39322;SDS011;25036;53.638;10.134;2022-07-18T03:44:43;2.40;;;2.20;;
39322;SDS011;25036;53.638;10.134;2022-07-18T03:45:43;3.90;;;2.00;;
39322;SDS011;25036;53.638;10.134;2022-07-18T03:46:43;3.33;;;2.33;;
39322;SDS011;25036;53.638;10.134;2022-07-18T03:47:44;2.67;;;2.07;;
39322;SDS011;25036;53.638;10.134;2022-07-18T03:48:44;4.33;;;2.40;;
39322;SDS011;25036;53.638;10.134;2022-07-18T03:49:44;3.00;;;2.33;;
39322;SDS011;25036;53.638;10.134;2022-07-18T03:50:44;5.13;;;2.70;;
39322;SDS011;25036;53.638;10.134;2022-07-18T03:51:44;3.27;;;2.20;;
39322;SDS011;25036;53.638;10.134;2022-07-18T03:52:44;2.87;;;2.47;;
39322;SDS011;25036;53.638;10.134;2022-07-18T03:53:45;6.55;;;2.75;;
39322;SDS011;25036;53.638;10.134;2022-07-18T03:54:45;4.55;;;2.65;;
39322;SDS011;25036;53.638;10.134;2022-07-18T03:55:45;3.83;;;2.30;;
39322;SDS011;25036;53.638;10.134;2022-07-18T03:56:45;2.92;;;2.60;;
39322;SDS011;25036;53.638;10.134;2022-07-18T03:57:46;3.15;;;2.38;;
39322;SDS011;25036;53.638;10.134;2022-07-18T03:58:46;3.00;;;2.37;;
39322;SDS011;25036;53.638;10.134;2022-07-18T03:59:46;4.00;;;2.30;;
39322;SDS011;25036;53.638;10.134;2022-07-18T04:00:46;3.77;;;2.60;;
39322;SDS011;25036;53.638;10.134;2022-07-18T04:01:46;4.30;;;2.40;;
39322;SDS011;25036;53.638;10.134;2022-07-18T04:02:47;2.60;;;2.40;;
39322;SDS011;25036;53.638;10.134;2022-07-18T04:03:47;3.97;;;2.30;;
39322;SDS011;25036;53.638;10.134;2022-07-18T04:04:47;3.00;;;2.63;;
39322;SDS011;25036;53.638;10.134;2022-07-18T04:05:48;2.50;;;2.20;;
39322;SDS011;25036;53.638;10.134;2022-07-18T04:06:48;3.38;;;2.35;;
39322;SDS011;25036;53.638;10.134;2022-07-18T04:07:48;3.83;;;2.43;;
39322;SDS011;25036;53.638;10.134;2022-07-18T04:08:48;3.58;;;2.33;;
39322;SDS011;25036;53.638;10.134;2022-07-18T04:09:49;2.50;;;2.13;;
39322;SDS011;25036;53.638;10.134;2022-07-18T04:10:49;5.47;;;2.20;;
39322;SDS011;25036;53.638;10.134;2022-07-18T04:11:49;3.30;;;2.35;;
39322;SDS011;25036;53.638;10.134;2022-07-18T04:12:50;4.13;;;2.50;;
39322;SDS011;25036;53.638;10.134;2022-07-18T04:13:51;4.30;;;2.38;;
39322;SDS011;25036;53.638;10.134;2022-07-18T04:14:52;3.38;;;2.20;;
39322;SDS011;25036;53.638;10.134;2022-07-18T04:15:52;3.77;;;2.50;;
39322;SDS011;25036;53.638;10.134;2022-07-18T04:16:52;2.10;;;1.90;;
39322;SDS011;25036;53.638;10.134;2022-07-18T04:17:52;3.33;;;2.30;;
39322;SDS011;25036;53.638;10.134;2022-07-18T04:18:53;3.00;;;2.50;;
39322;SDS011;25036;53.638;10.134;2022-07-18T04:19:53;2.95;;;2.38;;
39322;SDS011;25036;53.638;10.134;2022-07-18T04:20:53;3.60;;;2.30;;
39322;SDS011;25036;53.638;10.134;2022-07-18T04:21:53;2.37;;;2.10;;
39322;SDS011;25036;53.638;10.134;2022-07-18T04:22:57;3.07;;;2.33;;
39322;SDS011;25036;53.638;10.134;2022-07-18T04:23:57;3.55;;;2.70;;
39322;SDS011;25036;53.638;10.134;2022-07-18T04:24:57;2.53;;;2.23;;
39322;SDS011;25036;53.638;10.134;2022-07-18T04:25:57;3.77;;;2.50;;
39322;SDS011;25036;53.638;10.134;2022-07-18T04:26:58;3.47;;;2.75;;
39322;SDS011;25036;53.638;10.134;2022-07-18T04:27:58;2.95;;;2.47;;
39322;SDS011;25036;53.638;10.134;2022-07-18T04:28:58;4.37;;;2.47;;
39322;SDS011;25036;53.638;10.134;2022-07-18T04:29:58;2.67;;;2.27;;
39322;SDS011;25036;53.638;10.134;2022-07-18T04:30:58;3.90;;;2.70;;
39322;SDS011;25036;53.638;10.134;2022-07-18T04:31:59;5.20;;;2.72;;
39322;SDS011;25036;53.638;10.134;2022-07-18T04:33:02;3.20;;;2.45;;
39322;SDS011;25036;53.638;10.134;2022-07-18T04:34:03;3.30;;;2.38;;
39322;SDS011;25036;53.638;10.134;2022-07-18T04:35:04;3.33;;;2.60;;
39322;SDS011;25036;53.638;10.134;2022-07-18T04:36:04;5.70;;;2.53;;
39322;SDS011;25036;53.638;10.134;2022-07-18T04:37:05;2.80;;;2.20;;
39322;SDS011;25036;53.638;10.134;2022-07-18T04:38:06;4.03;;;2.43;;
39322;SDS011;25036;53.638;10.134;2022-07-18T04:39:06;3.95;;;2.28;;
39322;SDS011;25036;53.638;10.134;2022-07-18T04:40:07;4.30;;;2.50;;
39322;SDS011;25036;53.638;10.134;2022-07-18T04:41:08;3.42;;;2.65;;
39322;SDS011;25036;53.638;10.134;2022-07-18T04:42:08;3.55;;;2.33;;
39322;SDS011;25036;53.638;10.134;2022-07-18T04:43:08;3.30;;;2.50;;
39322;SDS011;25036;53.638;10.134;2022-07-18T04:44:08;3.00;;;2.53;;
39322;SDS011;25036;53.638;10.134;2022-07-18T04:45:09;5.25;;;2.85;;
39322;SDS011;25036;53.638;10.134;2022-07-18T04:46:09;3.38;;;2.30;;
39322;SDS011;25036;53.638;10.134;2022-07-18T04:47:09;3.80;;;2.47;;
39322;SDS011;25036;53.638;10.134;2022-07-18T04:48:10;3.83;;;2.93;;
39322;SDS011;25036;53.638;10.134;2022-07-18T04:49:10;3.60;;;2.00;;
39322;SDS011;25036;53.638;10.134;2022-07-18T04:50:10;3.40;;;2.60;;
39322;SDS011;25036;53.638;10.134;2022-07-18T04:51:10;3.20;;;2.17;;
39322;SDS011;25036;53.638;10.134;2022-07-18T04:52:10;3.30;;;2.50;;
39322;SDS011;25036;53.638;10.134;2022-07-18T04:53:10;3.53;;;2.53;;
39322;SDS011;25036;53.638;10.134;2022-07-18T04:54:10;4.40;;;2.63;;
39322;SDS011;25036;53.638;10.134;2022-07-18T04:55:13;6.63;;;2.40;;
39322;SDS011;25036;53.638;10.134;2022-07-18T04:56:13;5.07;;;2.42;;
39322;SDS011;25036;53.638;10.134;2022-07-18T04:57:14;3.10;;;2.50;;
39322;SDS011;25036;53.638;10.134;2022-07-18T04:58:14;4.97;;;2.63;;
39322;SDS011;25036;53.638;10.134;2022-07-18T04:59:14;3.85;;;2.72;;
39322;SDS011;25036;53.638;10.134;2022-07-18T05:00:16;2.78;;;2.38;;
39322;SDS011;25036;53.638;10.134;2022-07-18T05:01:16;2.92;;;2.10;;
39322;SDS011;25036;53.638;10.134;2022-07-18T05:02:16;4.28;;;2.78;;
39322;SDS011;25036;53.638;10.134;2022-07-18T05:03:16;3.23;;;2.20;;
39322;SDS011;25036;53.638;10.134;2022-07-18T05:04:16;4.27;;;2.50;;
39322;SDS011;25036;53.638;10.134;2022-07-18T05:05:17;4.43;;;2.35;;
39322;SDS011;25036;53.638;10.134;2022-07-18T05:06:18;4.80;;;2.38;;
39322;SDS011;25036;53.638;10.134;2022-07-18T05:07:18;4.73;;;2.47;;
39322;SDS011;25036;53.638;10.134;2022-07-18T05:08:18;3.40;;;2.43;;
39322;SDS011;25036;53.638;10.134;2022-07-18T05:09:18;2.97;;;2.33;;
39322;SDS011;25036;53.638;10.134;2022-07-18T05:10:19;5.30;;;2.63;;
39322;SDS011;25036;53.638;10.134;2022-07-18T05:11:19;3.88;;;2.30;;
39322;SDS011;25036;53.638;10.134;2022-07-18T05:12:19;2.77;;;2.33;;
39322;SDS011;25036;53.638;10.134;2022-07-18T05:13:23;3.25;;;2.38;;
39322;SDS011;25036;53.638;10.134;2022-07-18T05:14:23;3.13;;;2.47;;
39322;SDS011;25036;53.638;10.134;2022-07-18T05:15:24;3.80;;;2.65;;
39322;SDS011;25036;53.638;10.134;2022-07-18T05:16:24;2.63;;;2.30;;
39322;SDS011;25036;53.638;10.134;2022-07-18T05:17:24;3.70;;;2.47;;
39322;SDS011;25036;53.638;10.134;2022-07-18T05:18:25;5.80;;;2.80;;
39322;SDS011;25036;53.638;10.134;2022-07-18T05:19:25;4.27;;;2.43;;
39322;SDS011;25036;53.638;10.134;2022-07-18T05:20:25;3.50;;;2.40;;
39322;SDS011;25036;53.638;10.134;2022-07-18T05:21:26;3.28;;;2.60;;
39322;SDS011;25036;53.638;10.134;2022-07-18T05:22:26;3.73;;;2.10;;
39322;SDS011;25036;53.638;10.134;2022-07-18T05:23:26;4.30;;;2.90;;
39322;SDS011;25036;53.638;10.134;2022-07-18T05:24:26;4.90;;;2.60;;
39322;SDS011;25036;53.638;10.134;2022-07-18T05:25:27;3.55;;;2.30;;
39322;SDS011;25036;53.638;10.134;2022-07-18T05:26:27;4.40;;;2.15;;
39322;SDS011;25036;53.638;10.134;2022-07-18T05:27:27;3.37;;;2.70;;
39322;SDS011;25036;53.638;10.134;2022-07-18T05:28:27;3.92;;;2.60;;
39322;SDS011;25036;53.638;10.134;2022-07-18T05:29:27;3.10;;;2.47;;
39322;SDS011;25036;53.638;10.134;2022-07-18T05:30:27;4.33;;;2.40;;
39322;SDS011;25036;53.638;10.134;2022-07-18T05:31:28;4.45;;;2.70;;
39322;SDS011;25036;53.638;10.134;2022-07-18T05:32:28;2.97;;;2.60;;
39322;SDS011;25036;53.638;10.134;2022-07-18T05:33:28;3.05;;;2.40;;
39322;SDS011;25036;53.638;10.134;2022-07-18T05:34:29;3.75;;;2.60;;
39322;SDS011;25036;53.638;10.134;2022-07-18T05:35:29;4.32;;;2.83;;
39322;SDS011;25036;53.638;10.134;2022-07-18T05:36:29;3.00;;;2.40;;
39322;SDS011;25036;53.638;10.134;2022-07-18T05:37:29;4.73;;;2.83;;
39322;SDS011;25036;53.638;10.134;2022-07-18T05:38:29;5.03;;;2.80;;
39322;SDS011;25036;53.638;10.134;2022-07-18T05:39:29;3.70;;;2.43;;
39322;SDS011;25036;53.638;10.134;2022-07-18T05:40:30;3.07;;;2.60;;
39322;SDS011;25036;53.638;10.134;2022-07-18T05:41:30;5.93;;;2.92;;
39322;SDS011;25036;53.638;10.134;2022-07-18T05:42:30;3.55;;;2.85;;
39322;SDS011;25036;53.638;10.134;2022-07-18T05:43:30;3.25;;;2.95;;
39322;SDS011;25036;53.638;10.134;2022-07-18T05:44:30;4.53;;;2.90;;
39322;SDS011;25036;53.638;10.134;2022-07-18T05:45:30;4.63;;;2.77;;
39322;SDS011;25036;53.638;10.134;2022-07-18T05:46:31;5.80;;;2.90;;
39322;SDS011;25036;53.638;10.134;2022-07-18T05:47:31;3.90;;;2.80;;
39322;SDS011;25036;53.638;10.134;2022-07-18T05:48:31;3.03;;;2.60;;
39322;SDS011;25036;53.638;10.134;2022-07-18T05:49:31;3.87;;;2.80;;
39322;SDS011;25036;53.638;10.134;2022-07-18T05:50:32;6.47;;;2.90;;
39322;SDS011;25036;53.638;10.134;2022-07-18T05:51:32;4.27;;;2.63;;
39322;SDS011;25036;53.638;10.134;2022-07-18T05:52:32;3.83;;;2.72;;
39322;SDS011;25036;53.638;10.134;2022-07-18T05:53:33;3.87;;;2.80;;
39322;SDS011;25036;53.638;10.134;2022-07-18T05:54:33;3.72;;;2.90;;
39322;SDS011;25036;53.638;10.134;2022-07-18T05:55:33;4.63;;;2.80;;
39322;SDS011;25036;53.638;10.134;2022-07-18T05:56:33;5.47;;;2.70;;
39322;SDS011;25036;53.638;10.134;2022-07-18T05:57:34;5.20;;;3.08;;
39322;SDS011;25036;53.638;10.134;2022-07-18T05:58:34;4.65;;;3.20;;